sensor_id;sensor_type;location;lat;lon;timestamp;P1;durP1;ratioP1;P2;durP2;ratioP2
13941;SDS011;7043;51.630;7.254;2023-05-10T00:01:37;9.47;;;8.17;;
13941;SDS011;7043;51.630;7.254;2023-05-10T00:04:03;9.20;;;8.30;;
13941;SDS011;7043;51.630;7.254;2023-05-10T00:06:29;7.97;;;7.17;;
13941;SDS011;7043;51.630;7.254;2023-05-10T00:08:56;7.20;;;6.47;;
13941;SDS011;7043;51.630;7.254;2023-05-10T00:11:22;6.63;;;5.93;;
13941;SDS011;7043;51.630;7.254;2023-05-10T00:13:48;5.47;;;4.97;;
13941;SDS011;7043;51.630;7.254;2023-05-10T00:16:14;5.43;;;4.47;;
13941;SDS011;7043;51.630;7.254;2023-05-10T00:18:40;4.70;;;4.07;;
13941;SDS011;7043;51.630;7.254;2023-05-10T00:21:06;6.30;;;4.87;;
13941;SDS011;7043;51.630;7.254;2023-05-10T00:23:32;5.37;;;4.87;;
13941;SDS011;7043;51.630;7.254;2023-05-10T00:25:58;7.10;;;6.10;;
13941;SDS011;7043;51.630;7.254;2023-05-10T00:28:24;7.20;;;6.50;;
13941;SDS011;7043;51.630;7.254;2023-05-10T00:30:50;10.00;;;7.23;;
13941;SDS011;7043;51.630;7.254;2023-05-10T00:33:16;8.03;;;6.90;;
13941;SDS011;7043;51.630;7.254;2023-05-10T00:35:43;9.73;;;8.00;;
13941;SDS011;7043;51.630;7.254;2023-05-10T00:38:09;9.47;;;7.73;;
13941;SDS011;7043;51.630;7.254;2023-05-10T00:40:35;10.20;;;7.73;;
13941;SDS011;7043;51.630;7.254;2023-05-10T00:43:02;11.73;;;9.20;;
13941;SDS011;7043;51.630;7.254;2023-05-10T00:45:28;10.73;;;8.37;;
13941;SDS011;7043;51.630;7.254;2023-05-10T00:47:55;12.53;;;8.63;;
13941;SDS011;7043;51.630;7.254;2023-05-10T00:50:21;12.87;;;9.33;;
13941;SDS011;7043;51.630;7.254;2023-05-10T00:52:48;12.63;;;9.90;;
13941;SDS011;7043;51.630;7.254;2023-05-10T00:55:14;12.53;;;9.10;;
13941;SDS011;7043;51.630;7.254;2023-05-10T00:57:40;13.03;;;9.73;;
13941;SDS011;7043;51.630;7.254;2023-05-10T01:00:07;14.53;;;10.67;;
13941;SDS011;7043;51.630;7.254;2023-05-10T01:02:33;13.87;;;10.70;;
13941;SDS011;7043;51.630;7.254;2023-05-10T01:05:00;14.40;;;10.77;;
13941;SDS011;7043;51.630;7.254;2023-05-10T01:07:28;13.60;;;9.60;;
13941;SDS011;7043;51.630;7.254;2023-05-10T01:09:54;10.43;;;8.80;;
13941;SDS011;7043;51.630;7.254;2023-05-10T01:12:20;12.00;;;8.27;;
13941;SDS011;7043;51.630;7.254;2023-05-10T01:14:46;9.67;;;8.13;;
13941;SDS011;7043;51.630;7.254;2023-05-10T01:17:13;9.47;;;8.30;;
13941;SDS011;7043;51.630;7.254;2023-05-10T01:19:39;10.10;;;8.77;;
13941;SDS011;7043;51.630;7.254;2023-05-10T01:22:10;9.73;;;7.90;;
13941;SDS011;7043;51.630;7.254;2023-05-10T01:34:32;9.57;;;7.23;;
13941;SDS011;7043;51.630;7.254;2023-05-10T01:37:02;9.03;;;7.13;;
13941;SDS011;7043;51.630;7.254;2023-05-10T01:42:08;8.37;;;7.40;;
13941;SDS011;7043;51.630;7.254;2023-05-10T01:44:42;11.60;;;8.57;;
13941;SDS011;7043;51.630;7.254;2023-05-10T01:47:14;10.13;;;8.03;;
13941;SDS011;7043;51.630;7.254;2023-05-10T01:49:45;8.67;;;7.50;;
13941;SDS011;7043;51.630;7.254;2023-05-10T01:52:14;8.17;;;7.23;;
13941;SDS011;7043;51.630;7.254;2023-05-10T01:54:42;9.60;;;7.87;;
13941;SDS011;7043;51.630;7.254;2023-05-10T01:57:10;9.40;;;7.60;;
13941;SDS011;7043;51.630;7.254;2023-05-10T01:59:38;9.53;;;7.80;;
13941;SDS011;7043;51.630;7.254;2023-05-10T02:02:06;5.07;;;4.50;;
13941;SDS011;7043;51.630;7.254;2023-05-10T02:04:32;4.30;;;3.77;;
13941;SDS011;7043;51.630;7.254;2023-05-10T02:07:01;3.30;;;3.00;;
13941;SDS011;7043;51.630;7.254;2023-05-10T02:09:27;3.10;;;2.70;;
13941;SDS011;7043;51.630;7.254;2023-05-10T02:11:54;3.30;;;3.00;;
13941;SDS011;7043;51.630;7.254;2023-05-10T02:14:21;4.17;;;3.70;;
13941;SDS011;7043;51.630;7.254;2023-05-10T02:16:49;4.00;;;3.60;;
13941;SDS011;7043;51.630;7.254;2023-05-10T02:19:16;5.30;;;3.97;;
13941;SDS011;7043;51.630;7.254;2023-05-10T02:21:43;3.77;;;3.43;;
13941;SDS011;7043;51.630;7.254;2023-05-10T02:24:10;4.47;;;4.00;;
13941;SDS011;7043;51.630;7.254;2023-05-10T02:26:36;4.90;;;3.77;;
13941;SDS011;7043;51.630;7.254;2023-05-10T02:29:03;4.53;;;4.13;;
13941;SDS011;7043;51.630;7.254;2023-05-10T02:31:31;4.93;;;3.97;;
13941;SDS011;7043;51.630;7.254;2023-05-10T02:33:58;5.30;;;4.27;;
13941;SDS011;7043;51.630;7.254;2023-05-10T02:36:26;5.50;;;4.50;;
13941;SDS011;7043;51.630;7.254;2023-05-10T02:38:52;5.17;;;4.50;;
13941;SDS011;7043;51.630;7.254;2023-05-10T02:41:19;5.77;;;4.83;;
13941;SDS011;7043;51.630;7.254;2023-05-10T02:43:46;5.00;;;4.50;;
13941;SDS011;7043;51.630;7.254;2023-05-10T02:46:12;4.90;;;4.50;;
13941;SDS011;7043;51.630;7.254;2023-05-10T02:48:38;4.60;;;4.20;;
13941;SDS011;7043;51.630;7.254;2023-05-10T02:51:05;4.30;;;3.90;;
13941;SDS011;7043;51.630;7.254;2023-05-10T02:53:33;4.23;;;3.80;;
13941;SDS011;7043;51.630;7.254;2023-05-10T02:56:00;3.80;;;3.30;;
13941;SDS011;7043;51.630;7.254;2023-05-10T02:58:28;5.17;;;3.40;;
13941;SDS011;7043;51.630;7.254;2023-05-10T03:00:54;3.80;;;3.40;;
13941;SDS011;7043;51.630;7.254;2023-05-10T03:03:20;4.27;;;3.30;;
13941;SDS011;7043;51.630;7.254;2023-05-10T03:05:47;3.47;;;3.10;;
13941;SDS011;7043;51.630;7.254;2023-05-10T03:08:12;3.07;;;2.77;;
13941;SDS011;7043;51.630;7.254;2023-05-10T03:10:41;5.27;;;3.40;;
13941;SDS011;7043;51.630;7.254;2023-05-10T03:13:20;4.67;;;3.60;;
13941;SDS011;7043;51.630;7.254;2023-05-10T03:15:55;5.73;;;4.17;;
13941;SDS011;7043;51.630;7.254;2023-05-10T03:20:54;8.30;;;6.80;;
13941;SDS011;7043;51.630;7.254;2023-05-10T03:25:48;9.77;;;7.77;;
13941;SDS011;7043;51.630;7.254;2023-05-10T03:28:16;12.30;;;9.00;;
13941;SDS011;7043;51.630;7.254;2023-05-10T03:30:43;11.33;;;8.53;;
13941;SDS011;7043;51.630;7.254;2023-05-10T03:33:09;13.23;;;9.77;;
13941;SDS011;7043;51.630;7.254;2023-05-10T03:35:35;12.30;;;9.27;;
13941;SDS011;7043;51.630;7.254;2023-05-10T03:38:02;12.77;;;9.73;;
13941;SDS011;7043;51.630;7.254;2023-05-10T03:40:27;13.20;;;9.87;;
13941;SDS011;7043;51.630;7.254;2023-05-10T03:42:56;14.37;;;10.73;;
13941;SDS011;7043;51.630;7.254;2023-05-10T03:45:22;14.07;;;10.83;;
13941;SDS011;7043;51.630;7.254;2023-05-10T03:47:48;16.33;;;12.03;;
13941;SDS011;7043;51.630;7.254;2023-05-10T03:50:14;14.67;;;11.83;;
13941;SDS011;7043;51.630;7.254;2023-05-10T03:52:40;17.60;;;12.77;;
13941;SDS011;7043;51.630;7.254;2023-05-10T03:55:06;19.00;;;13.70;;
13941;SDS011;7043;51.630;7.254;2023-05-10T03:57:32;19.40;;;14.67;;
13941;SDS011;7043;51.630;7.254;2023-05-10T03:59:58;21.30;;;15.67;;
13941;SDS011;7043;51.630;7.254;2023-05-10T04:02:24;22.50;;;15.93;;
13941;SDS011;7043;51.630;7.254;2023-05-10T04:04:50;22.00;;;16.27;;
13941;SDS011;7043;51.630;7.254;2023-05-10T04:07:16;30.53;;;21.13;;
13941;SDS011;7043;51.630;7.254;2023-05-10T04:09:43;31.90;;;21.30;;
13941;SDS011;7043;51.630;7.254;2023-05-10T04:12:09;34.33;;;23.53;;
13941;SDS011;7043;51.630;7.254;2023-05-10T04:14:35;36.47;;;24.00;;
13941;SDS011;7043;51.630;7.254;2023-05-10T04:17:01;42.70;;;28.03;;
13941;SDS011;7043;51.630;7.254;2023-05-10T04:19:30;45.07;;;29.13;;
13941;SDS011;7043;51.630;7.254;2023-05-10T04:21:56;47.40;;;29.37;;
13941;SDS011;7043;51.630;7.254;2023-05-10T04:24:22;47.60;;;29.47;;
13941;SDS011;7043;51.630;7.254;2023-05-10T04:26:48;48.10;;;29.87;;
13941;SDS011;7043;51.630;7.254;2023-05-10T04:29:14;52.90;;;30.13;;
13941;SDS011;7043;51.630;7.254;2023-05-10T04:31:40;55.90;;;31.63;;
13941;SDS011;7043;51.630;7.254;2023-05-10T04:34:06;55.40;;;34.03;;
13941;SDS011;7043;51.630;7.254;2023-05-10T04:36:32;56.60;;;35.63;;
13941;SDS011;7043;51.630;7.254;2023-05-10T04:39:00;62.37;;;35.83;;
13941;SDS011;7043;51.630;7.254;2023-05-10T04:41:27;60.17;;;35.63;;
13941;SDS011;7043;51.630;7.254;2023-05-10T04:43:53;61.80;;;35.83;;
13941;SDS011;7043;51.630;7.254;2023-05-10T04:46:19;61.97;;;36.33;;
13941;SDS011;7043;51.630;7.254;2023-05-10T04:48:45;61.03;;;35.17;;
13941;SDS011;7043;51.630;7.254;2023-05-10T04:51:11;64.57;;;36.73;;
13941;SDS011;7043;51.630;7.254;2023-05-10T04:53:38;64.40;;;36.37;;
13941;SDS011;7043;51.630;7.254;2023-05-10T04:56:04;64.67;;;35.83;;
13941;SDS011;7043;51.630;7.254;2023-05-10T04:58:30;66.70;;;37.80;;
13941;SDS011;7043;51.630;7.254;2023-05-10T05:00:56;64.60;;;36.67;;
13941;SDS011;7043;51.630;7.254;2023-05-10T05:03:22;64.40;;;35.97;;
13941;SDS011;7043;51.630;7.254;2023-05-10T05:05:48;62.43;;;37.60;;
13941;SDS011;7043;51.630;7.254;2023-05-10T05:08:14;63.23;;;37.13;;
13941;SDS011;7043;51.630;7.254;2023-05-10T05:10:40;68.90;;;40.20;;
13941;SDS011;7043;51.630;7.254;2023-05-10T05:13:06;66.73;;;39.47;;
13941;SDS011;7043;51.630;7.254;2023-05-10T05:15:32;65.53;;;38.47;;
13941;SDS011;7043;51.630;7.254;2023-05-10T05:17:58;60.53;;;39.10;;
13941;SDS011;7043;51.630;7.254;2023-05-10T05:20:25;58.97;;;37.83;;
13941;SDS011;7043;51.630;7.254;2023-05-10T05:22:51;56.30;;;35.13;;
13941;SDS011;7043;51.630;7.254;2023-05-10T05:25:17;56.20;;;36.40;;
13941;SDS011;7043;51.630;7.254;2023-05-10T05:27:42;57.17;;;36.37;;
13941;SDS011;7043;51.630;7.254;2023-05-10T05:30:09;60.10;;;38.40;;
13941;SDS011;7043;51.630;7.254;2023-05-10T05:32:35;59.03;;;37.07;;
13941;SDS011;7043;51.630;7.254;2023-05-10T05:35:01;62.03;;;37.53;;
13941;SDS011;7043;51.630;7.254;2023-05-10T05:37:27;60.40;;;39.23;;
13941;SDS011;7043;51.630;7.254;2023-05-10T05:39:53;58.33;;;37.67;;
13941;SDS011;7043;51.630;7.254;2023-05-10T05:42:21;64.77;;;37.53;;
13941;SDS011;7043;51.630;7.254;2023-05-10T05:44:47;60.30;;;38.10;;
13941;SDS011;7043;51.630;7.254;2023-05-10T05:47:13;59.43;;;37.60;;
13941;SDS011;7043;51.630;7.254;2023-05-10T05:49:39;63.83;;;38.57;;
13941;SDS011;7043;51.630;7.254;2023-05-10T05:52:05;60.67;;;38.00;;
13941;SDS011;7043;51.630;7.254;2023-05-10T05:54:31;56.03;;;35.27;;
13941;SDS011;7043;51.630;7.254;2023-05-10T05:56:57;55.97;;;35.00;;
13941;SDS011;7043;51.630;7.254;2023-05-10T05:59:24;57.77;;;35.33;;
13941;SDS011;7043;51.630;7.254;2023-05-10T06:01:50;54.30;;;34.07;;
13941;SDS011;7043;51.630;7.254;2023-05-10T06:04:16;58.83;;;36.17;;
13941;SDS011;7043;51.630;7.254;2023-05-10T06:06:42;60.23;;;35.80;;
13941;SDS011;7043;51.630;7.254;2023-05-10T06:09:08;58.33;;;36.10;;
13941;SDS011;7043;51.630;7.254;2023-05-10T06:11:34;59.90;;;36.67;;
13941;SDS011;7043;51.630;7.254;2023-05-10T06:14:01;66.73;;;38.77;;
13941;SDS011;7043;51.630;7.254;2023-05-10T06:16:28;62.63;;;38.70;;
13941;SDS011;7043;51.630;7.254;2023-05-10T06:18:54;62.97;;;37.17;;
13941;SDS011;7043;51.630;7.254;2023-05-10T06:21:20;65.10;;;38.30;;
13941;SDS011;7043;51.630;7.254;2023-05-10T06:23:46;64.73;;;39.17;;
13941;SDS011;7043;51.630;7.254;2023-05-10T06:26:12;63.83;;;38.70;;
13941;SDS011;7043;51.630;7.254;2023-05-10T06:28:38;67.10;;;38.70;;
13941;SDS011;7043;51.630;7.254;2023-05-10T06:31:05;60.40;;;37.53;;
13941;SDS011;7043;51.630;7.254;2023-05-10T06:33:31;61.40;;;36.87;;
13941;SDS011;7043;51.630;7.254;2023-05-10T06:35:57;60.93;;;37.47;;
13941;SDS011;7043;51.630;7.254;2023-05-10T06:38:23;61.00;;;38.53;;
13941;SDS011;7043;51.630;7.254;2023-05-10T06:40:49;63.00;;;39.07;;
13941;SDS011;7043;51.630;7.254;2023-05-10T06:43:16;62.10;;;38.63;;
13941;SDS011;7043;51.630;7.254;2023-05-10T06:45:42;63.37;;;38.23;;
13941;SDS011;7043;51.630;7.254;2023-05-10T06:48:08;59.83;;;37.17;;
13941;SDS011;7043;51.630;7.254;2023-05-10T06:50:34;54.07;;;35.27;;
13941;SDS011;7043;51.630;7.254;2023-05-10T06:53:00;55.13;;;37.07;;
13941;SDS011;7043;51.630;7.254;2023-05-10T06:55:26;58.87;;;38.23;;
13941;SDS011;7043;51.630;7.254;2023-05-10T06:57:52;61.30;;;40.10;;
13941;SDS011;7043;51.630;7.254;2023-05-10T07:00:19;56.97;;;39.30;;
13941;SDS011;7043;51.630;7.254;2023-05-10T07:02:45;57.50;;;38.93;;
13941;SDS011;7043;51.630;7.254;2023-05-10T07:05:11;56.67;;;38.63;;
13941;SDS011;7043;51.630;7.254;2023-05-10T07:07:37;55.30;;;38.73;;
13941;SDS011;7043;51.630;7.254;2023-05-10T07:10:03;55.37;;;37.47;;
13941;SDS011;7043;51.630;7.254;2023-05-10T07:12:29;51.27;;;35.77;;
13941;SDS011;7043;51.630;7.254;2023-05-10T07:14:55;51.83;;;35.20;;
13941;SDS011;7043;51.630;7.254;2023-05-10T07:17:21;51.03;;;35.57;;
13941;SDS011;7043;51.630;7.254;2023-05-10T07:19:47;50.77;;;36.10;;
13941;SDS011;7043;51.630;7.254;2023-05-10T07:22:14;55.17;;;37.90;;
13941;SDS011;7043;51.630;7.254;2023-05-10T07:24:40;54.13;;;38.30;;
13941;SDS011;7043;51.630;7.254;2023-05-10T07:27:06;50.80;;;36.90;;
13941;SDS011;7043;51.630;7.254;2023-05-10T07:29:32;50.87;;;35.73;;
13941;SDS011;7043;51.630;7.254;2023-05-10T07:31:58;52.77;;;34.67;;
13941;SDS011;7043;51.630;7.254;2023-05-10T07:34:24;52.17;;;35.50;;
13941;SDS011;7043;51.630;7.254;2023-05-10T07:36:50;50.13;;;35.97;;
13941;SDS011;7043;51.630;7.254;2023-05-10T07:39:16;50.40;;;35.23;;
13941;SDS011;7043;51.630;7.254;2023-05-10T07:41:42;50.80;;;35.57;;
13941;SDS011;7043;51.630;7.254;2023-05-10T07:44:08;48.23;;;35.03;;
13941;SDS011;7043;51.630;7.254;2023-05-10T07:46:34;47.93;;;34.77;;
13941;SDS011;7043;51.630;7.254;2023-05-10T07:49:00;48.90;;;35.47;;
13941;SDS011;7043;51.630;7.254;2023-05-10T07:51:26;49.60;;;36.57;;
13941;SDS011;7043;51.630;7.254;2023-05-10T07:53:53;46.30;;;34.47;;
13941;SDS011;7043;51.630;7.254;2023-05-10T07:56:29;45.30;;;34.30;;
13941;SDS011;7043;51.630;7.254;2023-05-10T07:58:56;45.97;;;34.97;;
13941;SDS011;7043;51.630;7.254;2023-05-10T08:01:22;47.30;;;35.60;;
13941;SDS011;7043;51.630;7.254;2023-05-10T08:03:48;46.03;;;35.50;;
13941;SDS011;7043;51.630;7.254;2023-05-10T08:06:16;49.07;;;34.87;;
13941;SDS011;7043;51.630;7.254;2023-05-10T08:08:42;44.13;;;34.00;;
13941;SDS011;7043;51.630;7.254;2023-05-10T08:11:10;45.75;;;33.78;;
13941;SDS011;7043;51.630;7.254;2023-05-10T08:13:36;44.43;;;33.17;;
13941;SDS011;7043;51.630;7.254;2023-05-10T08:16:02;47.85;;;34.50;;
13941;SDS011;7043;51.630;7.254;2023-05-10T08:18:28;45.63;;;32.30;;
13941;SDS011;7043;51.630;7.254;2023-05-10T08:20:54;43.80;;;33.05;;
13941;SDS011;7043;51.630;7.254;2023-05-10T08:23:20;42.67;;;30.10;;
13941;SDS011;7043;51.630;7.254;2023-05-10T08:25:46;37.13;;;30.83;;
13941;SDS011;7043;51.630;7.254;2023-05-10T08:28:12;41.50;;;32.53;;
13941;SDS011;7043;51.630;7.254;2023-05-10T08:30:38;38.55;;;30.65;;
13941;SDS011;7043;51.630;7.254;2023-05-10T08:33:04;38.20;;;30.70;;
13941;SDS011;7043;51.630;7.254;2023-05-10T08:35:30;38.83;;;29.93;;
13941;SDS011;7043;51.630;7.254;2023-05-10T08:37:56;37.27;;;30.40;;
13941;SDS011;7043;51.630;7.254;2023-05-10T08:40:22;39.23;;;31.73;;
13941;SDS011;7043;51.630;7.254;2023-05-10T08:43:00;40.57;;;31.00;;
13941;SDS011;7043;51.630;7.254;2023-05-10T08:45:27;40.13;;;31.00;;
13941;SDS011;7043;51.630;7.254;2023-05-10T08:47:55;36.30;;;30.30;;
13941;SDS011;7043;51.630;7.254;2023-05-10T08:50:22;36.07;;;28.27;;
13941;SDS011;7043;51.630;7.254;2023-05-10T08:52:48;37.17;;;28.70;;
13941;SDS011;7043;51.630;7.254;2023-05-10T08:55:16;35.90;;;29.47;;
13941;SDS011;7043;51.630;7.254;2023-05-10T08:57:42;38.57;;;29.47;;
13941;SDS011;7043;51.630;7.254;2023-05-10T09:00:08;34.57;;;27.13;;
13941;SDS011;7043;51.630;7.254;2023-05-10T09:02:35;40.03;;;29.53;;
13941;SDS011;7043;51.630;7.254;2023-05-10T09:05:02;36.53;;;28.77;;
13941;SDS011;7043;51.630;7.254;2023-05-10T09:07:29;39.77;;;31.23;;
13941;SDS011;7043;51.630;7.254;2023-05-10T09:09:55;42.97;;;31.98;;
13941;SDS011;7043;51.630;7.254;2023-05-10T09:12:22;44.57;;;33.20;;
13941;SDS011;7043;51.630;7.254;2023-05-10T09:14:48;41.00;;;32.40;;
13941;SDS011;7043;51.630;7.254;2023-05-10T09:17:16;42.27;;;31.90;;
13941;SDS011;7043;51.630;7.254;2023-05-10T09:19:42;44.23;;;32.93;;
13941;SDS011;7043;51.630;7.254;2023-05-10T09:22:08;41.03;;;32.58;;
13941;SDS011;7043;51.630;7.254;2023-05-10T09:24:35;47.60;;;36.08;;
13941;SDS011;7043;51.630;7.254;2023-05-10T09:27:01;44.60;;;35.45;;
13941;SDS011;7043;51.630;7.254;2023-05-10T09:29:38;43.15;;;35.08;;
13941;SDS011;7043;51.630;7.254;2023-05-10T09:32:04;37.33;;;31.42;;
13941;SDS011;7043;51.630;7.254;2023-05-10T09:34:31;39.20;;;29.60;;
13941;SDS011;7043;51.630;7.254;2023-05-10T09:37:00;34.60;;;28.47;;
13941;SDS011;7043;51.630;7.254;2023-05-10T09:39:30;33.77;;;26.07;;
13941;SDS011;7043;51.630;7.254;2023-05-10T09:41:57;31.15;;;24.63;;
13941;SDS011;7043;51.630;7.254;2023-05-10T09:44:23;28.58;;;22.67;;
13941;SDS011;7043;51.630;7.254;2023-05-10T09:46:51;28.80;;;23.57;;
13941;SDS011;7043;51.630;7.254;2023-05-10T09:49:18;31.10;;;24.08;;
13941;SDS011;7043;51.630;7.254;2023-05-10T09:51:44;33.10;;;25.35;;
13941;SDS011;7043;51.630;7.254;2023-05-10T09:54:11;31.45;;;23.95;;
13941;SDS011;7043;51.630;7.254;2023-05-10T09:56:38;27.50;;;22.10;;
13941;SDS011;7043;51.630;7.254;2023-05-10T09:59:05;31.25;;;24.23;;
13941;SDS011;7043;51.630;7.254;2023-05-10T10:01:32;31.10;;;24.92;;
13941;SDS011;7043;51.630;7.254;2023-05-10T10:03:58;29.23;;;24.02;;
13941;SDS011;7043;51.630;7.254;2023-05-10T10:06:25;31.35;;;24.13;;
13941;SDS011;7043;51.630;7.254;2023-05-10T10:08:51;26.38;;;22.33;;
13941;SDS011;7043;51.630;7.254;2023-05-10T10:11:18;28.50;;;22.48;;
13941;SDS011;7043;51.630;7.254;2023-05-10T10:13:44;28.80;;;23.27;;
13941;SDS011;7043;51.630;7.254;2023-05-10T10:16:10;29.67;;;24.15;;
13941;SDS011;7043;51.630;7.254;2023-05-10T10:18:36;31.03;;;25.00;;
13941;SDS011;7043;51.630;7.254;2023-05-10T10:21:06;33.97;;;27.77;;
13941;SDS011;7043;51.630;7.254;2023-05-10T10:23:35;42.63;;;33.67;;
13941;SDS011;7043;51.630;7.254;2023-05-10T10:26:02;48.30;;;37.30;;
13941;SDS011;7043;51.630;7.254;2023-05-10T10:31:20;55.17;;;37.57;;
13941;SDS011;7043;51.630;7.254;2023-05-10T10:33:51;55.17;;;38.90;;
13941;SDS011;7043;51.630;7.254;2023-05-10T10:36:21;59.63;;;39.93;;
13941;SDS011;7043;51.630;7.254;2023-05-10T10:47:05;50.90;;;36.17;;
13941;SDS011;7043;51.630;7.254;2023-05-10T10:49:31;44.37;;;33.07;;
13941;SDS011;7043;51.630;7.254;2023-05-10T10:52:12;45.03;;;32.73;;
13941;SDS011;7043;51.630;7.254;2023-05-10T10:54:39;41.47;;;30.07;;
13941;SDS011;7043;51.630;7.254;2023-05-10T10:57:14;37.87;;;26.43;;
13941;SDS011;7043;51.630;7.254;2023-05-10T10:59:43;36.35;;;26.75;;
13941;SDS011;7043;51.630;7.254;2023-05-10T11:02:10;37.53;;;28.83;;
13941;SDS011;7043;51.630;7.254;2023-05-10T11:04:56;34.97;;;26.20;;
13941;SDS011;7043;51.630;7.254;2023-05-10T11:07:22;33.55;;;26.75;;
13941;SDS011;7043;51.630;7.254;2023-05-10T11:09:48;35.10;;;27.15;;
13941;SDS011;7043;51.630;7.254;2023-05-10T11:12:14;35.85;;;27.50;;
13941;SDS011;7043;51.630;7.254;2023-05-10T11:14:40;37.97;;;30.47;;
13941;SDS011;7043;51.630;7.254;2023-05-10T11:17:25;44.53;;;35.53;;
13941;SDS011;7043;51.630;7.254;2023-05-10T11:20:11;41.30;;;34.20;;
13941;SDS011;7043;51.630;7.254;2023-05-10T11:22:49;46.60;;;37.23;;
13941;SDS011;7043;51.630;7.254;2023-05-10T11:25:18;40.33;;;35.23;;
13941;SDS011;7043;51.630;7.254;2023-05-10T11:27:44;46.93;;;38.30;;
13941;SDS011;7043;51.630;7.254;2023-05-10T11:30:10;35.37;;;29.53;;
13941;SDS011;7043;51.630;7.254;2023-05-10T11:32:37;38.97;;;30.33;;
13941;SDS011;7043;51.630;7.254;2023-05-10T11:35:10;41.27;;;32.70;;
13941;SDS011;7043;51.630;7.254;2023-05-10T11:37:38;33.35;;;24.95;;
13941;SDS011;7043;51.630;7.254;2023-05-10T11:40:08;30.35;;;23.75;;
13941;SDS011;7043;51.630;7.254;2023-05-10T11:42:35;31.27;;;24.02;;
13941;SDS011;7043;51.630;7.254;2023-05-10T11:45:01;31.80;;;25.08;;
13941;SDS011;7043;51.630;7.254;2023-05-10T11:47:27;32.50;;;23.93;;
13941;SDS011;7043;51.630;7.254;2023-05-10T11:49:54;28.88;;;23.08;;
13941;SDS011;7043;51.630;7.254;2023-05-10T11:52:20;27.27;;;20.65;;
13941;SDS011;7043;51.630;7.254;2023-05-10T11:54:55;24.30;;;19.67;;
13941;SDS011;7043;51.630;7.254;2023-05-10T11:57:26;24.52;;;18.65;;
13941;SDS011;7043;51.630;7.254;2023-05-10T11:59:53;22.13;;;17.50;;
13941;SDS011;7043;51.630;7.254;2023-05-10T12:02:22;20.38;;;17.38;;
13941;SDS011;7043;51.630;7.254;2023-05-10T12:04:49;21.05;;;18.60;;
13941;SDS011;7043;51.630;7.254;2023-05-10T12:07:15;20.77;;;17.55;;
13941;SDS011;7043;51.630;7.254;2023-05-10T12:09:48;20.55;;;17.40;;
13941;SDS011;7043;51.630;7.254;2023-05-10T12:12:34;19.30;;;16.95;;
13941;SDS011;7043;51.630;7.254;2023-05-10T12:15:01;19.53;;;16.20;;
13941;SDS011;7043;51.630;7.254;2023-05-10T12:17:28;19.52;;;17.20;;
13941;SDS011;7043;51.630;7.254;2023-05-10T12:19:58;20.13;;;16.60;;
13941;SDS011;7043;51.630;7.254;2023-05-10T12:22:24;19.17;;;16.23;;
13941;SDS011;7043;51.630;7.254;2023-05-10T12:24:50;18.50;;;15.33;;
13941;SDS011;7043;51.630;7.254;2023-05-10T12:27:17;20.10;;;15.90;;
13941;SDS011;7043;51.630;7.254;2023-05-10T12:29:42;18.67;;;15.77;;
13941;SDS011;7043;51.630;7.254;2023-05-10T12:32:09;17.42;;;15.55;;
13941;SDS011;7043;51.630;7.254;2023-05-10T12:34:35;18.65;;;16.63;;
13941;SDS011;7043;51.630;7.254;2023-05-10T12:37:03;20.70;;;17.50;;
13941;SDS011;7043;51.630;7.254;2023-05-10T12:39:42;20.77;;;17.60;;
13941;SDS011;7043;51.630;7.254;2023-05-10T12:42:08;19.05;;;17.02;;
13941;SDS011;7043;51.630;7.254;2023-05-10T12:44:35;20.48;;;15.40;;
13941;SDS011;7043;51.630;7.254;2023-05-10T12:47:01;22.70;;;16.42;;
13941;SDS011;7043;51.630;7.254;2023-05-10T12:49:26;21.55;;;17.48;;
13941;SDS011;7043;51.630;7.254;2023-05-10T12:51:52;21.45;;;17.85;;
13941;SDS011;7043;51.630;7.254;2023-05-10T12:54:18;27.05;;;20.33;;
13941;SDS011;7043;51.630;7.254;2023-05-10T12:56:44;24.02;;;19.33;;
13941;SDS011;7043;51.630;7.254;2023-05-10T12:59:10;20.45;;;17.33;;
13941;SDS011;7043;51.630;7.254;2023-05-10T13:01:36;23.30;;;17.60;;
13941;SDS011;7043;51.630;7.254;2023-05-10T13:04:02;21.85;;;17.67;;
13941;SDS011;7043;51.630;7.254;2023-05-10T13:06:28;20.73;;;16.80;;
13941;SDS011;7043;51.630;7.254;2023-05-10T13:08:55;22.58;;;17.23;;
13941;SDS011;7043;51.630;7.254;2023-05-10T13:11:22;21.02;;;17.05;;
13941;SDS011;7043;51.630;7.254;2023-05-10T13:13:48;20.35;;;17.48;;
13941;SDS011;7043;51.630;7.254;2023-05-10T13:16:14;22.80;;;18.40;;
13941;SDS011;7043;51.630;7.254;2023-05-10T13:18:40;20.38;;;17.95;;
13941;SDS011;7043;51.630;7.254;2023-05-10T13:21:06;21.75;;;18.33;;
13941;SDS011;7043;51.630;7.254;2023-05-10T13:23:32;20.90;;;18.05;;
13941;SDS011;7043;51.630;7.254;2023-05-10T13:25:58;20.10;;;16.52;;
13941;SDS011;7043;51.630;7.254;2023-05-10T13:28:24;20.60;;;18.40;;
13941;SDS011;7043;51.630;7.254;2023-05-10T13:30:51;19.60;;;17.52;;
13941;SDS011;7043;51.630;7.254;2023-05-10T13:33:17;19.23;;;17.17;;
13941;SDS011;7043;51.630;7.254;2023-05-10T13:35:43;19.30;;;16.63;;
13941;SDS011;7043;51.630;7.254;2023-05-10T13:38:10;18.27;;;15.40;;
13941;SDS011;7043;51.630;7.254;2023-05-10T13:40:36;15.65;;;13.93;;
13941;SDS011;7043;51.630;7.254;2023-05-10T13:43:01;17.58;;;15.00;;
13941;SDS011;7043;51.630;7.254;2023-05-10T13:45:27;16.15;;;14.05;;
13941;SDS011;7043;51.630;7.254;2023-05-10T13:47:53;14.43;;;13.02;;
13941;SDS011;7043;51.630;7.254;2023-05-10T13:50:19;13.57;;;12.25;;
13941;SDS011;7043;51.630;7.254;2023-05-10T13:52:45;14.52;;;13.02;;
13941;SDS011;7043;51.630;7.254;2023-05-10T13:55:12;14.38;;;12.88;;
13941;SDS011;7043;51.630;7.254;2023-05-10T13:57:38;15.40;;;13.18;;
13941;SDS011;7043;51.630;7.254;2023-05-10T14:00:04;15.05;;;12.40;;
13941;SDS011;7043;51.630;7.254;2023-05-10T14:02:30;13.80;;;11.63;;
13941;SDS011;7043;51.630;7.254;2023-05-10T14:04:56;14.10;;;12.43;;
13941;SDS011;7043;51.630;7.254;2023-05-10T14:07:22;12.20;;;10.45;;
13941;SDS011;7043;51.630;7.254;2023-05-10T14:09:48;11.48;;;9.70;;
13941;SDS011;7043;51.630;7.254;2023-05-10T14:12:14;10.38;;;9.23;;
13941;SDS011;7043;51.630;7.254;2023-05-10T14:14:41;10.73;;;9.32;;
13941;SDS011;7043;51.630;7.254;2023-05-10T14:17:07;9.63;;;8.63;;
13941;SDS011;7043;51.630;7.254;2023-05-10T14:19:33;10.02;;;9.02;;
13941;SDS011;7043;51.630;7.254;2023-05-10T14:21:59;11.77;;;10.57;;
13941;SDS011;7043;51.630;7.254;2023-05-10T14:24:25;11.02;;;9.80;;
13941;SDS011;7043;51.630;7.254;2023-05-10T14:26:51;11.65;;;9.70;;
13941;SDS011;7043;51.630;7.254;2023-05-10T14:29:19;11.85;;;10.57;;
13941;SDS011;7043;51.630;7.254;2023-05-10T14:31:45;10.48;;;9.13;;
13941;SDS011;7043;51.630;7.254;2023-05-10T14:34:11;10.00;;;8.35;;
13941;SDS011;7043;51.630;7.254;2023-05-10T14:36:37;10.05;;;8.35;;
13941;SDS011;7043;51.630;7.254;2023-05-10T14:39:03;11.15;;;8.77;;
13941;SDS011;7043;51.630;7.254;2023-05-10T14:41:29;9.30;;;7.88;;
13941;SDS011;7043;51.630;7.254;2023-05-10T14:43:55;8.70;;;7.63;;
13941;SDS011;7043;51.630;7.254;2023-05-10T14:46:22;11.57;;;8.75;;
13941;SDS011;7043;51.630;7.254;2023-05-10T14:48:47;11.35;;;8.77;;
13941;SDS011;7043;51.630;7.254;2023-05-10T14:51:14;10.02;;;9.02;;
13941;SDS011;7043;51.630;7.254;2023-05-10T14:53:40;13.05;;;10.60;;
13941;SDS011;7043;51.630;7.254;2023-05-10T14:56:06;12.27;;;11.00;;
13941;SDS011;7043;51.630;7.254;2023-05-10T14:58:32;15.23;;;12.25;;
13941;SDS011;7043;51.630;7.254;2023-05-10T15:00:58;13.70;;;11.77;;
13941;SDS011;7043;51.630;7.254;2023-05-10T15:03:24;13.80;;;12.13;;
13941;SDS011;7043;51.630;7.254;2023-05-10T15:05:50;13.25;;;11.55;;
13941;SDS011;7043;51.630;7.254;2023-05-10T15:08:16;13.82;;;11.38;;